Terminal Aerodrome Forecast
Issued by NWS Charleston, WV

Current Version | Previous Version | Graphics & Text | Print | Product List | Glossary On
Versions: 1 2 3 4 5 6 7 8 9 10 11 12 13 14 15 16 17 18 19 20 21 22 23 24
346
FTUS41 KRLX 132320
TAFBKW
TAF
KBKW 132320Z 1400/1424 15008KT P6SM BKN040
     FM140200 14006KT P6SM BKN040
     FM140500 14003KT P6SM BKN025
     FM140700 14003KT P6SM BKN020
     FM141200 16005KT P6SM BKN035
     FM141500 23007KT P6SM SCT045=

USA.gov is the U.S. government's official web portal to all federal, state and local government web resources and services.